sensor_id;sensor_type;location;lat;lon;timestamp;P1;durP1;ratioP1;P2;durP2;ratioP2
18726;SDS011;9492;51.888;5.186;2023-01-30T00:01:22;27.73;;;16.93;;
18726;SDS011;9492;51.888;5.186;2023-01-30T00:03:49;24.17;;;15.43;;
18726;SDS011;9492;51.888;5.186;2023-01-30T00:06:15;24.57;;;16.17;;
18726;SDS011;9492;51.888;5.186;2023-01-30T00:08:42;28.23;;;16.87;;
18726;SDS011;9492;51.888;5.186;2023-01-30T00:11:10;24.23;;;15.47;;
18726;SDS011;9492;51.888;5.186;2023-01-30T00:13:36;23.43;;;14.80;;
18726;SDS011;9492;51.888;5.186;2023-01-30T00:16:02;21.87;;;15.53;;
18726;SDS011;9492;51.888;5.186;2023-01-30T00:18:28;23.43;;;17.10;;
18726;SDS011;9492;51.888;5.186;2023-01-30T00:20:55;25.07;;;15.43;;
18726;SDS011;9492;51.888;5.186;2023-01-30T00:23:22;22.73;;;14.00;;
18726;SDS011;9492;51.888;5.186;2023-01-30T00:25:48;20.47;;;15.63;;
18726;SDS011;9492;51.888;5.186;2023-01-30T00:28:14;21.33;;;14.60;;
18726;SDS011;9492;51.888;5.186;2023-01-30T00:30:40;20.87;;;13.03;;
18726;SDS011;9492;51.888;5.186;2023-01-30T00:33:05;19.07;;;13.30;;
18726;SDS011;9492;51.888;5.186;2023-01-30T00:35:31;19.73;;;14.40;;
18726;SDS011;9492;51.888;5.186;2023-01-30T00:37:57;18.33;;;11.77;;
18726;SDS011;9492;51.888;5.186;2023-01-30T00:40:24;21.77;;;12.87;;
18726;SDS011;9492;51.888;5.186;2023-01-30T00:42:51;18.07;;;11.83;;
18726;SDS011;9492;51.888;5.186;2023-01-30T00:45:35;21.73;;;12.47;;
18726;SDS011;9492;51.888;5.186;2023-01-30T00:48:20;22.67;;;12.80;;
18726;SDS011;9492;51.888;5.186;2023-01-30T00:50:47;18.47;;;12.33;;
18726;SDS011;9492;51.888;5.186;2023-01-30T00:53:14;18.43;;;11.93;;
18726;SDS011;9492;51.888;5.186;2023-01-30T00:55:40;18.87;;;12.27;;
18726;SDS011;9492;51.888;5.186;2023-01-30T00:58:07;20.83;;;11.93;;
18726;SDS011;9492;51.888;5.186;2023-01-30T01:00:33;22.37;;;11.50;;
18726;SDS011;9492;51.888;5.186;2023-01-30T01:03:00;18.67;;;10.17;;
18726;SDS011;9492;51.888;5.186;2023-01-30T01:05:26;16.17;;;10.57;;
18726;SDS011;9492;51.888;5.186;2023-01-30T01:07:53;18.73;;;11.53;;
18726;SDS011;9492;51.888;5.186;2023-01-30T01:10:19;19.40;;;11.17;;
18726;SDS011;9492;51.888;5.186;2023-01-30T01:12:45;17.77;;;12.07;;
18726;SDS011;9492;51.888;5.186;2023-01-30T01:15:12;18.33;;;11.77;;
18726;SDS011;9492;51.888;5.186;2023-01-30T01:17:39;16.13;;;10.43;;
18726;SDS011;9492;51.888;5.186;2023-01-30T01:20:05;17.43;;;11.07;;
18726;SDS011;9492;51.888;5.186;2023-01-30T01:22:31;21.47;;;12.57;;
18726;SDS011;9492;51.888;5.186;2023-01-30T01:24:57;17.33;;;9.93;;
18726;SDS011;9492;51.888;5.186;2023-01-30T01:27:23;18.70;;;10.37;;
18726;SDS011;9492;51.888;5.186;2023-01-30T01:29:49;15.50;;;10.37;;
18726;SDS011;9492;51.888;5.186;2023-01-30T01:32:15;19.63;;;10.23;;
18726;SDS011;9492;51.888;5.186;2023-01-30T01:34:41;14.63;;;9.57;;
18726;SDS011;9492;51.888;5.186;2023-01-30T01:37:07;15.43;;;8.83;;
18726;SDS011;9492;51.888;5.186;2023-01-30T01:39:33;14.07;;;8.93;;
18726;SDS011;9492;51.888;5.186;2023-01-30T01:42:18;13.73;;;8.40;;
18726;SDS011;9492;51.888;5.186;2023-01-30T01:47:29;13.97;;;7.67;;
18726;SDS011;9492;51.888;5.186;2023-01-30T01:49:56;13.20;;;8.17;;
18726;SDS011;9492;51.888;5.186;2023-01-30T01:52:22;12.80;;;7.03;;
18726;SDS011;9492;51.888;5.186;2023-01-30T01:54:53;13.77;;;7.40;;
18726;SDS011;9492;51.888;5.186;2023-01-30T01:57:22;13.83;;;6.00;;
18726;SDS011;9492;51.888;5.186;2023-01-30T01:59:50;13.47;;;6.20;;
18726;SDS011;9492;51.888;5.186;2023-01-30T02:02:17;11.13;;;6.13;;
18726;SDS011;9492;51.888;5.186;2023-01-30T02:04:44;8.53;;;5.23;;
18726;SDS011;9492;51.888;5.186;2023-01-30T02:07:29;10.03;;;5.37;;
18726;SDS011;9492;51.888;5.186;2023-01-30T02:09:57;13.50;;;5.90;;
18726;SDS011;9492;51.888;5.186;2023-01-30T02:12:23;10.03;;;4.80;;
18726;SDS011;9492;51.888;5.186;2023-01-30T02:14:49;9.70;;;5.20;;
18726;SDS011;9492;51.888;5.186;2023-01-30T02:17:18;16.30;;;5.70;;
18726;SDS011;9492;51.888;5.186;2023-01-30T02:27:19;12.83;;;5.63;;
18726;SDS011;9492;51.888;5.186;2023-01-30T02:32:44;10.80;;;4.57;;
18726;SDS011;9492;51.888;5.186;2023-01-30T02:35:27;9.43;;;3.80;;
18726;SDS011;9492;51.888;5.186;2023-01-30T02:40:37;11.20;;;4.87;;
18726;SDS011;9492;51.888;5.186;2023-01-30T02:48:20;6.27;;;4.00;;
18726;SDS011;9492;51.888;5.186;2023-01-30T02:51:11;9.93;;;5.07;;
18726;SDS011;9492;51.888;5.186;2023-01-30T02:53:34;11.70;;;4.77;;
18726;SDS011;9492;51.888;5.186;2023-01-30T02:56:00;10.60;;;4.47;;
18726;SDS011;9492;51.888;5.186;2023-01-30T02:58:34;12.73;;;4.47;;
18726;SDS011;9492;51.888;5.186;2023-01-30T03:11:46;9.93;;;3.43;;
18726;SDS011;9492;51.888;5.186;2023-01-30T03:14:23;16.27;;;5.30;;
18726;SDS011;9492;51.888;5.186;2023-01-30T03:16:51;11.87;;;4.17;;
18726;SDS011;9492;51.888;5.186;2023-01-30T03:19:19;9.30;;;3.97;;
18726;SDS011;9492;51.888;5.186;2023-01-30T03:21:46;7.20;;;4.47;;
18726;SDS011;9492;51.888;5.186;2023-01-30T03:24:12;8.13;;;4.17;;
18726;SDS011;9492;51.888;5.186;2023-01-30T03:27:21;9.33;;;4.00;;
18726;SDS011;9492;51.888;5.186;2023-01-30T03:29:28;11.77;;;4.30;;
18726;SDS011;9492;51.888;5.186;2023-01-30T03:31:54;12.83;;;4.20;;
18726;SDS011;9492;51.888;5.186;2023-01-30T03:34:20;9.17;;;4.03;;
18726;SDS011;9492;51.888;5.186;2023-01-30T03:36:46;10.13;;;4.00;;
18726;SDS011;9492;51.888;5.186;2023-01-30T03:39:12;14.87;;;4.33;;
18726;SDS011;9492;51.888;5.186;2023-01-30T03:41:41;11.43;;;3.80;;
18726;SDS011;9492;51.888;5.186;2023-01-30T03:44:07;8.20;;;4.20;;
18726;SDS011;9492;51.888;5.186;2023-01-30T03:46:33;10.73;;;4.17;;
18726;SDS011;9492;51.888;5.186;2023-01-30T03:48:59;9.20;;;4.37;;
18726;SDS011;9492;51.888;5.186;2023-01-30T03:51:25;11.07;;;4.10;;
18726;SDS011;9492;51.888;5.186;2023-01-30T03:53:51;8.40;;;3.70;;
18726;SDS011;9492;51.888;5.186;2023-01-30T03:56:17;11.27;;;4.33;;
18726;SDS011;9492;51.888;5.186;2023-01-30T03:58:44;12.13;;;3.93;;
18726;SDS011;9492;51.888;5.186;2023-01-30T04:01:10;11.83;;;4.53;;
18726;SDS011;9492;51.888;5.186;2023-01-30T04:03:36;9.30;;;4.60;;
18726;SDS011;9492;51.888;5.186;2023-01-30T04:06:02;9.67;;;4.43;;
18726;SDS011;9492;51.888;5.186;2023-01-30T04:08:28;7.00;;;3.63;;
18726;SDS011;9492;51.888;5.186;2023-01-30T04:10:54;7.10;;;3.73;;
18726;SDS011;9492;51.888;5.186;2023-01-30T04:13:20;12.97;;;4.37;;
18726;SDS011;9492;51.888;5.186;2023-01-30T04:15:45;9.20;;;3.70;;
18726;SDS011;9492;51.888;5.186;2023-01-30T04:18:11;15.77;;;4.63;;
18726;SDS011;9492;51.888;5.186;2023-01-30T04:20:37;13.23;;;4.13;;
18726;SDS011;9492;51.888;5.186;2023-01-30T04:23:03;11.13;;;4.17;;
18726;SDS011;9492;51.888;5.186;2023-01-30T04:25:29;11.33;;;3.47;;
18726;SDS011;9492;51.888;5.186;2023-01-30T04:27:55;14.30;;;4.17;;
18726;SDS011;9492;51.888;5.186;2023-01-30T04:30:21;14.93;;;4.60;;
18726;SDS011;9492;51.888;5.186;2023-01-30T04:32:47;11.03;;;4.80;;
18726;SDS011;9492;51.888;5.186;2023-01-30T04:35:13;11.90;;;3.87;;
18726;SDS011;9492;51.888;5.186;2023-01-30T04:37:40;11.20;;;4.27;;
18726;SDS011;9492;51.888;5.186;2023-01-30T04:40:06;11.23;;;3.90;;
18726;SDS011;9492;51.888;5.186;2023-01-30T04:42:32;9.60;;;4.00;;
18726;SDS011;9492;51.888;5.186;2023-01-30T04:44:58;10.73;;;3.43;;
18726;SDS011;9492;51.888;5.186;2023-01-30T04:47:24;6.07;;;3.67;;
18726;SDS011;9492;51.888;5.186;2023-01-30T04:49:50;10.07;;;3.53;;
18726;SDS011;9492;51.888;5.186;2023-01-30T04:52:15;6.63;;;2.97;;
18726;SDS011;9492;51.888;5.186;2023-01-30T04:54:41;7.00;;;3.47;;
18726;SDS011;9492;51.888;5.186;2023-01-30T04:57:07;6.97;;;3.17;;
18726;SDS011;9492;51.888;5.186;2023-01-30T04:59:33;14.00;;;4.17;;
18726;SDS011;9492;51.888;5.186;2023-01-30T05:01:59;10.17;;;3.23;;
18726;SDS011;9492;51.888;5.186;2023-01-30T05:04:25;9.60;;;3.17;;
18726;SDS011;9492;51.888;5.186;2023-01-30T05:06:51;9.83;;;3.10;;
18726;SDS011;9492;51.888;5.186;2023-01-30T05:09:17;14.80;;;3.13;;
18726;SDS011;9492;51.888;5.186;2023-01-30T05:11:43;8.97;;;3.23;;
18726;SDS011;9492;51.888;5.186;2023-01-30T05:14:09;15.47;;;3.13;;
18726;SDS011;9492;51.888;5.186;2023-01-30T05:16:35;8.67;;;2.97;;
18726;SDS011;9492;51.888;5.186;2023-01-30T05:19:01;7.90;;;3.10;;
18726;SDS011;9492;51.888;5.186;2023-01-30T05:21:27;8.63;;;2.73;;
18726;SDS011;9492;51.888;5.186;2023-01-30T05:23:53;10.13;;;2.40;;
18726;SDS011;9492;51.888;5.186;2023-01-30T05:26:20;7.53;;;2.43;;
18726;SDS011;9492;51.888;5.186;2023-01-30T05:28:50;6.70;;;2.20;;
18726;SDS011;9492;51.888;5.186;2023-01-30T05:31:16;7.93;;;2.50;;
18726;SDS011;9492;51.888;5.186;2023-01-30T05:33:44;6.43;;;2.73;;
18726;SDS011;9492;51.888;5.186;2023-01-30T05:36:13;10.37;;;2.80;;
18726;SDS011;9492;51.888;5.186;2023-01-30T05:38:40;8.37;;;2.20;;
18726;SDS011;9492;51.888;5.186;2023-01-30T05:41:06;11.47;;;3.43;;
18726;SDS011;9492;51.888;5.186;2023-01-30T05:43:33;6.10;;;1.90;;
18726;SDS011;9492;51.888;5.186;2023-01-30T05:46:00;6.17;;;2.07;;
18726;SDS011;9492;51.888;5.186;2023-01-30T05:48:26;9.70;;;2.13;;
18726;SDS011;9492;51.888;5.186;2023-01-30T05:50:53;7.63;;;2.13;;
18726;SDS011;9492;51.888;5.186;2023-01-30T05:53:20;13.33;;;2.37;;
18726;SDS011;9492;51.888;5.186;2023-01-30T05:55:53;6.60;;;2.10;;
18726;SDS011;9492;51.888;5.186;2023-01-30T05:58:19;10.70;;;2.37;;
18726;SDS011;9492;51.888;5.186;2023-01-30T06:00:45;9.57;;;2.00;;
18726;SDS011;9492;51.888;5.186;2023-01-30T06:03:11;11.37;;;2.80;;
18726;SDS011;9492;51.888;5.186;2023-01-30T06:05:37;5.93;;;2.50;;
18726;SDS011;9492;51.888;5.186;2023-01-30T06:08:03;9.67;;;2.30;;
18726;SDS011;9492;51.888;5.186;2023-01-30T06:10:29;11.20;;;2.43;;
18726;SDS011;9492;51.888;5.186;2023-01-30T06:12:55;11.93;;;2.60;;
18726;SDS011;9492;51.888;5.186;2023-01-30T06:15:21;6.17;;;2.30;;
18726;SDS011;9492;51.888;5.186;2023-01-30T06:17:47;10.67;;;2.23;;
18726;SDS011;9492;51.888;5.186;2023-01-30T06:20:13;9.33;;;2.67;;
18726;SDS011;9492;51.888;5.186;2023-01-30T06:22:39;11.53;;;2.57;;
18726;SDS011;9492;51.888;5.186;2023-01-30T06:25:05;11.20;;;2.87;;
18726;SDS011;9492;51.888;5.186;2023-01-30T06:27:31;8.20;;;2.53;;
18726;SDS011;9492;51.888;5.186;2023-01-30T06:29:57;11.40;;;2.53;;
18726;SDS011;9492;51.888;5.186;2023-01-30T06:32:23;9.77;;;2.83;;
18726;SDS011;9492;51.888;5.186;2023-01-30T06:34:49;10.00;;;2.10;;
18726;SDS011;9492;51.888;5.186;2023-01-30T06:37:15;13.70;;;2.70;;
18726;SDS011;9492;51.888;5.186;2023-01-30T06:39:41;8.03;;;2.37;;
18726;SDS011;9492;51.888;5.186;2023-01-30T06:42:07;13.30;;;3.60;;
18726;SDS011;9492;51.888;5.186;2023-01-30T06:44:33;14.17;;;3.57;;
18726;SDS011;9492;51.888;5.186;2023-01-30T06:46:58;12.97;;;3.30;;
18726;SDS011;9492;51.888;5.186;2023-01-30T06:49:24;11.30;;;2.50;;
18726;SDS011;9492;51.888;5.186;2023-01-30T06:51:50;15.30;;;3.00;;
18726;SDS011;9492;51.888;5.186;2023-01-30T06:54:16;10.83;;;2.87;;
18726;SDS011;9492;51.888;5.186;2023-01-30T06:56:42;17.33;;;3.50;;
18726;SDS011;9492;51.888;5.186;2023-01-30T06:59:08;11.13;;;3.20;;
18726;SDS011;9492;51.888;5.186;2023-01-30T07:01:34;12.17;;;2.77;;
18726;SDS011;9492;51.888;5.186;2023-01-30T07:04:01;14.60;;;3.20;;
18726;SDS011;9492;51.888;5.186;2023-01-30T07:06:27;11.20;;;2.90;;
18726;SDS011;9492;51.888;5.186;2023-01-30T07:08:53;15.50;;;3.40;;
18726;SDS011;9492;51.888;5.186;2023-01-30T07:11:23;10.53;;;2.77;;
18726;SDS011;9492;51.888;5.186;2023-01-30T07:13:49;10.73;;;2.73;;
18726;SDS011;9492;51.888;5.186;2023-01-30T07:16:15;11.53;;;2.90;;
18726;SDS011;9492;51.888;5.186;2023-01-30T07:18:41;13.60;;;3.30;;
18726;SDS011;9492;51.888;5.186;2023-01-30T07:21:07;10.77;;;2.93;;
18726;SDS011;9492;51.888;5.186;2023-01-30T07:23:33;10.07;;;3.27;;
18726;SDS011;9492;51.888;5.186;2023-01-30T07:26:02;10.80;;;3.30;;
18726;SDS011;9492;51.888;5.186;2023-01-30T07:28:28;12.23;;;2.93;;
18726;SDS011;9492;51.888;5.186;2023-01-30T07:30:57;16.97;;;3.93;;
18726;SDS011;9492;51.888;5.186;2023-01-30T07:33:23;18.00;;;4.00;;
18726;SDS011;9492;51.888;5.186;2023-01-30T07:35:49;12.70;;;3.20;;
18726;SDS011;9492;51.888;5.186;2023-01-30T07:38:15;12.77;;;2.93;;
18726;SDS011;9492;51.888;5.186;2023-01-30T07:40:41;11.23;;;3.43;;
18726;SDS011;9492;51.888;5.186;2023-01-30T07:43:09;11.73;;;3.80;;
18726;SDS011;9492;51.888;5.186;2023-01-30T07:48:01;11.33;;;3.70;;
18726;SDS011;9492;51.888;5.186;2023-01-30T07:50:27;12.97;;;3.23;;
18726;SDS011;9492;51.888;5.186;2023-01-30T07:52:53;9.57;;;3.00;;
18726;SDS011;9492;51.888;5.186;2023-01-30T07:55:19;11.40;;;3.03;;
18726;SDS011;9492;51.888;5.186;2023-01-30T07:57:45;14.43;;;3.53;;
18726;SDS011;9492;51.888;5.186;2023-01-30T08:00:11;12.03;;;3.13;;
18726;SDS011;9492;51.888;5.186;2023-01-30T08:02:37;12.77;;;2.93;;
18726;SDS011;9492;51.888;5.186;2023-01-30T08:05:03;10.50;;;2.90;;
18726;SDS011;9492;51.888;5.186;2023-01-30T08:07:29;14.87;;;3.20;;
18726;SDS011;9492;51.888;5.186;2023-01-30T08:09:55;15.70;;;2.90;;
18726;SDS011;9492;51.888;5.186;2023-01-30T08:12:21;11.37;;;2.63;;
18726;SDS011;9492;51.888;5.186;2023-01-30T08:14:47;17.03;;;2.97;;
18726;SDS011;9492;51.888;5.186;2023-01-30T08:17:13;12.60;;;3.30;;
18726;SDS011;9492;51.888;5.186;2023-01-30T08:19:39;9.67;;;2.90;;
18726;SDS011;9492;51.888;5.186;2023-01-30T08:22:05;15.27;;;3.33;;
18726;SDS011;9492;51.888;5.186;2023-01-30T08:24:31;11.00;;;3.23;;
18726;SDS011;9492;51.888;5.186;2023-01-30T08:26:57;19.10;;;3.10;;
18726;SDS011;9492;51.888;5.186;2023-01-30T08:29:24;10.27;;;2.93;;
18726;SDS011;9492;51.888;5.186;2023-01-30T08:31:50;14.43;;;2.83;;
18726;SDS011;9492;51.888;5.186;2023-01-30T08:34:17;12.37;;;3.13;;
18726;SDS011;9492;51.888;5.186;2023-01-30T08:36:43;11.30;;;2.90;;
18726;SDS011;9492;51.888;5.186;2023-01-30T08:39:10;14.90;;;3.50;;
18726;SDS011;9492;51.888;5.186;2023-01-30T08:41:36;13.90;;;3.10;;
18726;SDS011;9492;51.888;5.186;2023-01-30T08:44:02;10.80;;;2.90;;
18726;SDS011;9492;51.888;5.186;2023-01-30T08:46:28;12.17;;;3.40;;
18726;SDS011;9492;51.888;5.186;2023-01-30T08:48:54;13.53;;;2.97;;
18726;SDS011;9492;51.888;5.186;2023-01-30T08:51:20;12.10;;;3.30;;
18726;SDS011;9492;51.888;5.186;2023-01-30T08:53:46;10.60;;;3.00;;
18726;SDS011;9492;51.888;5.186;2023-01-30T08:56:12;12.70;;;4.13;;
18726;SDS011;9492;51.888;5.186;2023-01-30T08:58:39;11.80;;;2.57;;
18726;SDS011;9492;51.888;5.186;2023-01-30T09:01:08;10.17;;;2.43;;
18726;SDS011;9492;51.888;5.186;2023-01-30T09:03:34;9.23;;;2.70;;
18726;SDS011;9492;51.888;5.186;2023-01-30T09:06:00;6.93;;;2.40;;
18726;SDS011;9492;51.888;5.186;2023-01-30T09:08:26;12.40;;;3.50;;
18726;SDS011;9492;51.888;5.186;2023-01-30T09:10:56;8.17;;;2.77;;
18726;SDS011;9492;51.888;5.186;2023-01-30T09:13:23;11.87;;;2.77;;
18726;SDS011;9492;51.888;5.186;2023-01-30T09:15:49;7.27;;;2.57;;
18726;SDS011;9492;51.888;5.186;2023-01-30T09:18:15;13.30;;;3.30;;
18726;SDS011;9492;51.888;5.186;2023-01-30T09:20:41;14.10;;;3.13;;
18726;SDS011;9492;51.888;5.186;2023-01-30T09:23:07;10.77;;;2.60;;
18726;SDS011;9492;51.888;5.186;2023-01-30T09:25:33;13.80;;;2.93;;
18726;SDS011;9492;51.888;5.186;2023-01-30T09:27:59;8.03;;;2.87;;
18726;SDS011;9492;51.888;5.186;2023-01-30T09:30:25;12.13;;;2.90;;
18726;SDS011;9492;51.888;5.186;2023-01-30T09:32:51;9.63;;;2.80;;
18726;SDS011;9492;51.888;5.186;2023-01-30T09:35:16;12.03;;;3.43;;
18726;SDS011;9492;51.888;5.186;2023-01-30T09:37:46;10.27;;;3.07;;
18726;SDS011;9492;51.888;5.186;2023-01-30T09:40:16;13.33;;;3.07;;
18726;SDS011;9492;51.888;5.186;2023-01-30T09:55:36;8.70;;;2.33;;
18726;SDS011;9492;51.888;5.186;2023-01-30T09:58:03;11.53;;;2.87;;
18726;SDS011;9492;51.888;5.186;2023-01-30T10:00:36;11.90;;;2.67;;
18726;SDS011;9492;51.888;5.186;2023-01-30T10:03:09;11.47;;;3.30;;
18726;SDS011;9492;51.888;5.186;2023-01-30T10:10:47;12.83;;;2.87;;
18726;SDS011;9492;51.888;5.186;2023-01-30T10:18:39;14.53;;;3.37;;
18726;SDS011;9492;51.888;5.186;2023-01-30T10:26:04;8.40;;;2.53;;
18726;SDS011;9492;51.888;5.186;2023-01-30T10:28:34;10.77;;;2.80;;
18726;SDS011;9492;51.888;5.186;2023-01-30T10:31:13;11.80;;;3.43;;
18726;SDS011;9492;51.888;5.186;2023-01-30T10:36:51;14.90;;;3.23;;
18726;SDS011;9492;51.888;5.186;2023-01-30T10:39:21;14.73;;;3.03;;
18726;SDS011;9492;51.888;5.186;2023-01-30T10:42:01;15.50;;;3.70;;
18726;SDS011;9492;51.888;5.186;2023-01-30T10:44:31;10.37;;;2.40;;
18726;SDS011;9492;51.888;5.186;2023-01-30T10:47:11;12.30;;;3.53;;
18726;SDS011;9492;51.888;5.186;2023-01-30T10:49:51;13.27;;;2.53;;
18726;SDS011;9492;51.888;5.186;2023-01-30T10:55:09;12.47;;;3.07;;
18726;SDS011;9492;51.888;5.186;2023-01-30T10:57:53;15.87;;;3.30;;
18726;SDS011;9492;51.888;5.186;2023-01-30T11:00:25;9.27;;;2.93;;
18726;SDS011;9492;51.888;5.186;2023-01-30T11:05:23;9.20;;;2.83;;
18726;SDS011;9492;51.888;5.186;2023-01-30T11:07:49;12.80;;;3.13;;
18726;SDS011;9492;51.888;5.186;2023-01-30T11:10:20;15.23;;;3.30;;
18726;SDS011;9492;51.888;5.186;2023-01-30T11:12:47;11.73;;;3.70;;
18726;SDS011;9492;51.888;5.186;2023-01-30T11:15:13;12.70;;;2.83;;
18726;SDS011;9492;51.888;5.186;2023-01-30T11:17:41;11.53;;;3.37;;
18726;SDS011;9492;51.888;5.186;2023-01-30T11:22:35;15.10;;;3.33;;
18726;SDS011;9492;51.888;5.186;2023-01-30T11:25:08;14.80;;;3.27;;
18726;SDS011;9492;51.888;5.186;2023-01-30T11:27:36;22.77;;;4.40;;
18726;SDS011;9492;51.888;5.186;2023-01-30T11:32:37;15.77;;;3.30;;
18726;SDS011;9492;51.888;5.186;2023-01-30T11:37:37;10.53;;;2.73;;
18726;SDS011;9492;51.888;5.186;2023-01-30T11:42:49;19.70;;;4.00;;
18726;SDS011;9492;51.888;5.186;2023-01-30T11:45:18;12.67;;;3.37;;
18726;SDS011;9492;51.888;5.186;2023-01-30T11:48:10;12.53;;;2.63;;
18726;SDS011;9492;51.888;5.186;2023-01-30T11:50:33;15.33;;;3.27;;
18726;SDS011;9492;51.888;5.186;2023-01-30T11:53:00;16.07;;;3.87;;
18726;SDS011;9492;51.888;5.186;2023-01-30T11:55:27;15.20;;;2.83;;
18726;SDS011;9492;51.888;5.186;2023-01-30T11:57:56;10.27;;;2.77;;
18726;SDS011;9492;51.888;5.186;2023-01-30T12:00:25;15.13;;;3.27;;
18726;SDS011;9492;51.888;5.186;2023-01-30T12:02:52;11.70;;;3.47;;
18726;SDS011;9492;51.888;5.186;2023-01-30T12:05:31;15.20;;;3.10;;
18726;SDS011;9492;51.888;5.186;2023-01-30T12:08:11;15.37;;;3.00;;
18726;SDS011;9492;51.888;5.186;2023-01-30T12:10:42;11.13;;;2.80;;
18726;SDS011;9492;51.888;5.186;2023-01-30T12:13:12;12.87;;;3.70;;
18726;SDS011;9492;51.888;5.186;2023-01-30T12:15:42;11.53;;;3.10;;
18726;SDS011;9492;51.888;5.186;2023-01-30T12:18:26;16.70;;;3.47;;
18726;SDS011;9492;51.888;5.186;2023-01-30T12:20:57;13.23;;;3.43;;
18726;SDS011;9492;51.888;5.186;2023-01-30T12:31:15;16.10;;;3.87;;
18726;SDS011;9492;51.888;5.186;2023-01-30T12:33:43;11.17;;;3.20;;
18726;SDS011;9492;51.888;5.186;2023-01-30T12:36:19;19.37;;;3.80;;
18726;SDS011;9492;51.888;5.186;2023-01-30T12:43:50;14.53;;;3.70;;
18726;SDS011;9492;51.888;5.186;2023-01-30T12:46:29;12.17;;;3.37;;
18726;SDS011;9492;51.888;5.186;2023-01-30T12:49:00;12.50;;;3.53;;
18726;SDS011;9492;51.888;5.186;2023-01-30T12:54:19;15.00;;;3.80;;
18726;SDS011;9492;51.888;5.186;2023-01-30T12:59:34;15.50;;;3.27;;
18726;SDS011;9492;51.888;5.186;2023-01-30T13:14:33;14.83;;;3.63;;
18726;SDS011;9492;51.888;5.186;2023-01-30T13:22:07;11.90;;;3.20;;
18726;SDS011;9492;51.888;5.186;2023-01-30T13:27:06;17.60;;;3.60;;
18726;SDS011;9492;51.888;5.186;2023-01-30T13:29:37;9.43;;;2.87;;
18726;SDS011;9492;51.888;5.186;2023-01-30T13:32:05;14.73;;;3.07;;
18726;SDS011;9492;51.888;5.186;2023-01-30T13:34:37;12.17;;;3.33;;
18726;SDS011;9492;51.888;5.186;2023-01-30T13:37:10;11.83;;;3.20;;
18726;SDS011;9492;51.888;5.186;2023-01-30T13:40:12;9.67;;;2.40;;
18726;SDS011;9492;51.888;5.186;2023-01-30T13:42:36;11.30;;;3.30;;
18726;SDS011;9492;51.888;5.186;2023-01-30T13:45:03;17.23;;;3.43;;
18726;SDS011;9492;51.888;5.186;2023-01-30T13:47:34;15.83;;;2.93;;
18726;SDS011;9492;51.888;5.186;2023-01-30T13:52:36;19.73;;;3.50;;
18726;SDS011;9492;51.888;5.186;2023-01-30T13:55:28;16.63;;;3.87;;
18726;SDS011;9492;51.888;5.186;2023-01-30T14:00:30;8.23;;;2.73;;
18726;SDS011;9492;51.888;5.186;2023-01-30T14:08:27;10.60;;;3.20;;
18726;SDS011;9492;51.888;5.186;2023-01-30T14:10:54;11.73;;;3.53;;
18726;SDS011;9492;51.888;5.186;2023-01-30T14:13:21;14.93;;;3.10;;
18726;SDS011;9492;51.888;5.186;2023-01-30T14:15:55;13.00;;;3.40;;
18726;SDS011;9492;51.888;5.186;2023-01-30T14:18:22;10.50;;;3.23;;
18726;SDS011;9492;51.888;5.186;2023-01-30T14:20:49;16.47;;;3.83;;
18726;SDS011;9492;51.888;5.186;2023-01-30T14:23:20;16.37;;;3.50;;
18726;SDS011;9492;51.888;5.186;2023-01-30T14:25:48;19.87;;;3.03;;
18726;SDS011;9492;51.888;5.186;2023-01-30T14:38:31;15.97;;;4.07;;
18726;SDS011;9492;51.888;5.186;2023-01-30T14:46:52;16.97;;;3.73;;
18726;SDS011;9492;51.888;5.186;2023-01-30T14:48:50;13.30;;;3.67;;
18726;SDS011;9492;51.888;5.186;2023-01-30T14:51:25;11.67;;;2.93;;
18726;SDS011;9492;51.888;5.186;2023-01-30T14:54:06;10.20;;;3.70;;
18726;SDS011;9492;51.888;5.186;2023-01-30T14:56:45;15.03;;;3.70;;
18726;SDS011;9492;51.888;5.186;2023-01-30T15:01:52;15.47;;;3.37;;
18726;SDS011;9492;51.888;5.186;2023-01-30T15:04:19;13.17;;;3.23;;
18726;SDS011;9492;51.888;5.186;2023-01-30T15:06:46;14.10;;;3.20;;
18726;SDS011;9492;51.888;5.186;2023-01-30T15:09:16;12.03;;;2.90;;
18726;SDS011;9492;51.888;5.186;2023-01-30T15:11:43;14.80;;;4.07;;
18726;SDS011;9492;51.888;5.186;2023-01-30T15:14:21;22.07;;;4.27;;
18726;SDS011;9492;51.888;5.186;2023-01-30T15:16:52;12.60;;;3.80;;
18726;SDS011;9492;51.888;5.186;2023-01-30T15:19:35;14.60;;;3.17;;
18726;SDS011;9492;51.888;5.186;2023-01-30T15:32:16;16.93;;;3.67;;
18726;SDS011;9492;51.888;5.186;2023-01-30T15:34:50;16.37;;;3.60;;
18726;SDS011;9492;51.888;5.186;2023-01-30T15:42:42;18.30;;;3.53;;
18726;SDS011;9492;51.888;5.186;2023-01-30T15:45:13;14.00;;;3.17;;
18726;SDS011;9492;51.888;5.186;2023-01-30T15:50:26;16.37;;;3.57;;
18726;SDS011;9492;51.888;5.186;2023-01-30T15:52:52;14.63;;;3.67;;
18726;SDS011;9492;51.888;5.186;2023-01-30T15:55:33;16.97;;;3.67;;
18726;SDS011;9492;51.888;5.186;2023-01-30T15:58:02;9.80;;;3.17;;
18726;SDS011;9492;51.888;5.186;2023-01-30T16:00:33;9.47;;;3.63;;
18726;SDS011;9492;51.888;5.186;2023-01-30T16:03:00;15.07;;;3.60;;
18726;SDS011;9492;51.888;5.186;2023-01-30T16:05:27;11.40;;;3.33;;
18726;SDS011;9492;51.888;5.186;2023-01-30T16:07:54;17.73;;;3.97;;
18726;SDS011;9492;51.888;5.186;2023-01-30T16:12:47;14.77;;;4.17;;
18726;SDS011;9492;51.888;5.186;2023-01-30T16:15:14;15.57;;;3.77;;
18726;SDS011;9492;51.888;5.186;2023-01-30T16:17:40;16.23;;;4.07;;
18726;SDS011;9492;51.888;5.186;2023-01-30T16:20:12;12.83;;;3.90;;
18726;SDS011;9492;51.888;5.186;2023-01-30T16:22:41;14.23;;;3.73;;
18726;SDS011;9492;51.888;5.186;2023-01-30T16:25:14;13.30;;;3.47;;
18726;SDS011;9492;51.888;5.186;2023-01-30T16:27:40;17.03;;;3.37;;
18726;SDS011;9492;51.888;5.186;2023-01-30T16:30:07;19.37;;;3.93;;
18726;SDS011;9492;51.888;5.186;2023-01-30T16:32:34;12.27;;;3.83;;
18726;SDS011;9492;51.888;5.186;2023-01-30T16:35:13;16.83;;;4.07;;
18726;SDS011;9492;51.888;5.186;2023-01-30T16:37:40;18.67;;;3.57;;
18726;SDS011;9492;51.888;5.186;2023-01-30T16:42:36;18.47;;;5.20;;
18726;SDS011;9492;51.888;5.186;2023-01-30T16:47:37;9.23;;;2.13;;
18726;SDS011;9492;51.888;5.186;2023-01-30T16:50:03;4.17;;;1.53;;
18726;SDS011;9492;51.888;5.186;2023-01-30T16:52:30;8.13;;;1.70;;
18726;SDS011;9492;51.888;5.186;2023-01-30T16:55:01;3.13;;;1.63;;
18726;SDS011;9492;51.888;5.186;2023-01-30T16:57:29;6.57;;;2.07;;
18726;SDS011;9492;51.888;5.186;2023-01-30T17:00:00;10.07;;;2.43;;
18726;SDS011;9492;51.888;5.186;2023-01-30T17:02:30;12.30;;;2.63;;
18726;SDS011;9492;51.888;5.186;2023-01-30T17:05:09;9.60;;;2.60;;
18726;SDS011;9492;51.888;5.186;2023-01-30T17:07:36;7.70;;;1.80;;
18726;SDS011;9492;51.888;5.186;2023-01-30T17:10:02;8.33;;;1.67;;
18726;SDS011;9492;51.888;5.186;2023-01-30T17:17:39;5.73;;;1.70;;
18726;SDS011;9492;51.888;5.186;2023-01-30T17:20:06;5.60;;;1.97;;
18726;SDS011;9492;51.888;5.186;2023-01-30T17:22:32;5.37;;;1.70;;
18726;SDS011;9492;51.888;5.186;2023-01-30T17:25:03;6.60;;;1.83;;
18726;SDS011;9492;51.888;5.186;2023-01-30T17:27:29;10.47;;;1.90;;
18726;SDS011;9492;51.888;5.186;2023-01-30T17:29:56;10.77;;;2.80;;
18726;SDS011;9492;51.888;5.186;2023-01-30T17:32:22;8.83;;;2.13;;
18726;SDS011;9492;51.888;5.186;2023-01-30T17:34:48;6.27;;;2.17;;
18726;SDS011;9492;51.888;5.186;2023-01-30T17:37:15;7.40;;;2.43;;
18726;SDS011;9492;51.888;5.186;2023-01-30T17:39:41;5.23;;;1.90;;
18726;SDS011;9492;51.888;5.186;2023-01-30T17:42:10;7.33;;;2.00;;
18726;SDS011;9492;51.888;5.186;2023-01-30T17:44:36;9.70;;;2.47;;
18726;SDS011;9492;51.888;5.186;2023-01-30T17:47:02;9.47;;;2.30;;
18726;SDS011;9492;51.888;5.186;2023-01-30T17:49:29;8.73;;;2.47;;
18726;SDS011;9492;51.888;5.186;2023-01-30T17:51:55;8.57;;;2.27;;
18726;SDS011;9492;51.888;5.186;2023-01-30T17:54:23;8.33;;;2.60;;
18726;SDS011;9492;51.888;5.186;2023-01-30T17:56:58;7.73;;;3.07;;